Time;durP1;ratioP1;P1;durP2;ratioP2;P2;SDS_P1;SDS_P2;PMS_P1;PMS_P2;Temp;Humidity;BMP_temperature;BMP_pressure;BME280_temperature;BME280_humidity;BME280_pressure;Samples;Min_cycle;Max_cycle;Signal;HPM_P1;HPM_P2
2021/10/15 00:01:43;;;;;;;1.03;0.77;;;13.20;99.90;;;;;;5112705;27;20280;-82
2021/10/15 00:04:10;;;;;;;0.60;0.60;;;13.20;99.90;;;;;;5107993;28;20314;-81
2021/10/15 00:06:37;;;;;;;0.80;0.80;;;13.20;99.90;;;;;;5108514;27;20203;-82
2021/10/15 00:09:04;;;;;;;0.67;0.67;;;13.20;99.90;;;;;;5108834;27;20544;-81
2021/10/15 00:11:32;;;;;;;0.70;0.70;;;13.20;99.90;;;;;;5108074;28;20206;-82
2021/10/15 00:13:59;;;;;;;0.93;0.93;;;13.20;99.90;;;;;;5105921;27;20930;-82
2021/10/15 00:16:26;;;;;;;0.80;0.80;;;13.20;99.90;;;;;;5108046;28;20549;-82
2021/10/15 00:18:53;;;;;;;0.80;0.70;;;13.20;99.90;;;;;;5101411;28;20215;-82
2021/10/15 00:21:20;;;;;;;0.57;0.57;;;13.20;99.90;;;;;;5102777;27;20229;-82
2021/10/15 00:23:47;;;;;;;0.50;0.50;;;13.20;99.90;;;;;;5107151;28;20239;-82
2021/10/15 00:26:14;;;;;;;1.50;0.80;;;13.20;99.90;;;;;;5108230;27;20235;-81
2021/10/15 00:28:42;;;;;;;0.70;0.70;;;13.20;99.90;;;;;;5105983;28;20236;-81
2021/10/15 00:31:09;;;;;;;0.70;0.70;;;13.20;99.90;;;;;;5109291;28;20205;-82
2021/10/15 00:33:37;;;;;;;0.70;0.70;;;13.10;99.90;;;;;;5109189;28;20440;-82
2021/10/15 00:36:04;;;;;;;0.50;0.50;;;13.20;99.90;;;;;;5108551;28;20261;-82
2021/10/15 00:38:31;;;;;;;0.40;0.40;;;13.20;99.90;;;;;;5106689;28;20199;-82
2021/10/15 00:40:58;;;;;;;1.23;0.60;;;13.20;99.90;;;;;;5107877;28;20219;-81
2021/10/15 00:43:25;;;;;;;0.47;0.47;;;13.20;99.90;;;;;;5102109;28;20665;-81
2021/10/15 00:45:54;;;;;;;0.40;0.40;;;13.20;99.90;;;;;;5102689;28;20218;-81
2021/10/15 00:48:21;;;;;;;0.57;0.57;;;13.20;99.90;;;;;;5109783;28;20382;-81
2021/10/15 00:50:51;;;;;;;0.40;0.40;;;13.20;99.90;;;;;;5096762;28;20216;-81
2021/10/15 00:53:19;;;;;;;0.40;0.40;;;13.30;99.90;;;;;;5107028;28;20431;-81
2021/10/15 00:55:46;;;;;;;0.40;0.40;;;13.30;99.90;;;;;;5108077;28;20222;-81
2021/10/15 00:58:13;;;;;;;0.47;0.47;;;13.30;99.90;;;;;;5105655;28;20676;-81
2021/10/15 01:00:40;;;;;;;1.03;0.60;;;13.30;99.90;;;;;;5107221;28;20200;-81
2021/10/15 01:03:09;;;;;;;0.63;0.63;;;13.30;99.90;;;;;;5107446;28;20203;-81
2021/10/15 01:05:36;;;;;;;0.60;0.60;;;13.30;99.90;;;;;;5109048;28;20555;-82
2021/10/15 01:08:04;;;;;;;0.43;0.43;;;13.30;99.90;;;;;;5108468;28;20189;-81
2021/10/15 01:10:31;;;;;;;0.50;0.50;;;13.30;99.90;;;;;;5108824;28;20571;-81
2021/10/15 01:12:59;;;;;;;0.70;0.70;;;13.30;99.90;;;;;;5107164;28;20688;-82
2021/10/15 01:15:27;;;;;;;0.50;0.50;;;13.30;99.90;;;;;;5106762;28;20219;-82
2021/10/15 01:17:54;;;;;;;0.40;0.40;;;13.40;99.90;;;;;;5111741;28;20251;-82
2021/10/15 01:20:22;;;;;;;0.53;0.53;;;13.40;99.90;;;;;;5102294;27;20639;-82
2021/10/15 01:22:50;;;;;;;0.50;0.50;;;13.40;99.90;;;;;;5107727;28;20305;-81
2021/10/15 01:25:17;;;;;;;0.50;0.50;;;13.30;99.90;;;;;;5107643;28;20267;-81
2021/10/15 01:27:44;;;;;;;0.50;0.50;;;13.30;99.90;;;;;;5092068;28;20318;-82
2021/10/15 01:30:11;;;;;;;0.53;0.53;;;13.40;99.90;;;;;;5106025;28;20200;-81
2021/10/15 01:32:38;;;;;;;0.50;0.50;;;13.40;99.90;;;;;;5093898;28;20329;-81
2021/10/15 01:35:06;;;;;;;0.50;0.50;;;13.40;99.90;;;;;;5108152;28;20592;-81
2021/10/15 01:37:34;;;;;;;0.60;0.60;;;13.40;99.90;;;;;;5108338;28;20191;-81
2021/10/15 01:40:01;;;;;;;0.60;0.60;;;13.40;99.90;;;;;;5106927;28;20212;-81
2021/10/15 01:45:13;;;;;;;0.60;0.60;;;13.40;99.90;;;;;;5100687;28;20724;-82
2021/10/15 01:47:40;;;;;;;0.50;0.50;;;13.40;99.90;;;;;;5106662;28;20656;-82
2021/10/15 01:50:07;;;;;;;0.70;0.70;;;13.70;99.90;;;;;;5106512;28;20704;-82
2021/10/15 01:52:37;;;;;;;0.60;0.60;;;13.50;99.90;;;;;;5107119;28;20204;-82
2021/10/15 01:55:05;;;;;;;0.50;0.50;;;13.50;99.90;;;;;;5113637;28;20221;-81
2021/10/15 01:57:32;;;;;;;0.60;0.60;;;13.40;99.90;;;;;;5114358;27;20563;-81
2021/10/15 01:59:59;;;;;;;0.50;0.50;;;13.40;99.90;;;;;;5106748;28;20611;-81
2021/10/15 02:02:26;;;;;;;0.50;0.50;;;13.50;99.90;;;;;;5117118;27;20199;-82
2021/10/15 02:04:53;;;;;;;0.60;0.60;;;13.50;99.90;;;;;;5110885;28;20232;-82
2021/10/15 02:07:20;;;;;;;0.57;0.57;;;13.50;99.90;;;;;;5112390;28;20277;-81
2021/10/15 02:09:49;;;;;;;1.50;0.60;;;13.40;99.90;;;;;;5109930;28;20196;-81
2021/10/15 02:12:16;;;;;;;0.80;0.80;;;13.50;99.90;;;;;;5103658;28;20197;-80
2021/10/15 02:14:43;;;;;;;0.60;0.60;;;13.50;99.90;;;;;;5110142;28;20213;-81
2021/10/15 02:17:12;;;;;;;0.50;0.50;;;13.50;99.90;;;;;;5110422;27;20209;-81
2021/10/15 02:19:39;;;;;;;1.43;0.70;;;13.50;99.90;;;;;;5104663;28;20219;-81
2021/10/15 02:22:06;;;;;;;1.27;0.63;;;13.50;99.90;;;;;;5100233;28;20300;-81
2021/10/15 02:24:36;;;;;;;1.67;1.13;;;13.50;99.90;;;;;;5118743;27;20303;-81
2021/10/15 02:27:05;;;;;;;1.10;0.90;;;13.50;99.90;;;;;;5109835;28;20211;-80
2021/10/15 02:29:32;;;;;;;1.27;1.10;;;13.50;99.90;;;;;;5109853;28;20761;-81
2021/10/15 02:31:59;;;;;;;1.20;1.10;;;13.50;99.90;;;;;;5110644;28;20295;-81
2021/10/15 02:34:27;;;;;;;1.43;0.97;;;13.50;99.90;;;;;;5109788;28;20260;-81
2021/10/15 02:36:54;;;;;;;0.97;0.93;;;13.60;99.90;;;;;;5111152;28;20300;-82
2021/10/15 02:39:21;;;;;;;0.80;0.80;;;13.60;99.90;;;;;;5097615;28;20546;-81
2021/10/15 02:41:48;;;;;;;1.00;1.00;;;13.60;99.90;;;;;;5111036;27;20203;-81
2021/10/15 02:44:17;;;;;;;0.93;0.93;;;13.60;99.90;;;;;;5098717;28;20254;-82
2021/10/15 02:46:44;;;;;;;1.47;1.10;;;13.70;99.90;;;;;;5107850;27;20222;-82
2021/10/15 02:49:12;;;;;;;0.90;0.90;;;13.70;99.90;;;;;;5112494;27;20199;-81
2021/10/15 02:51:39;;;;;;;1.20;1.10;;;13.60;99.90;;;;;;5112175;27;20222;-82
2021/10/15 02:54:06;;;;;;;1.10;1.10;;;13.60;99.90;;;;;;5109508;28;20235;-81
2021/10/15 02:56:33;;;;;;;1.23;1.00;;;13.70;99.90;;;;;;5113438;27;20196;-81
2021/10/15 02:59:00;;;;;;;1.57;1.17;;;13.70;99.90;;;;;;5106798;28;20261;-81
2021/10/15 03:01:28;;;;;;;2.33;1.40;;;13.70;99.90;;;;;;5113411;27;20192;-81
2021/10/15 03:03:55;;;;;;;3.03;1.30;;;13.70;99.90;;;;;;5109237;28;20312;-82
2021/10/15 03:06:22;;;;;;;3.33;1.70;;;13.70;99.90;;;;;;5108882;28;21024;-82
2021/10/15 03:08:49;;;;;;;1.87;1.77;;;13.70;99.90;;;;;;5109099;27;20904;-82
2021/10/15 03:11:16;;;;;;;1.50;1.40;;;13.70;99.90;;;;;;5109347;28;20540;-81
2021/10/15 03:13:44;;;;;;;2.07;1.40;;;13.90;99.90;;;;;;5106673;28;20703;-81
2021/10/15 03:16:11;;;;;;;2.83;1.73;;;13.70;99.90;;;;;;5109495;28;20564;-81
2021/10/15 03:18:39;;;;;;;1.90;1.60;;;13.70;99.90;;;;;;5108851;28;20703;-81
2021/10/15 03:21:07;;;;;;;3.17;2.03;;;13.70;99.90;;;;;;5112550;27;20203;-82
2021/10/15 03:23:34;;;;;;;2.07;1.87;;;13.70;99.90;;;;;;5107655;27;20237;-81
2021/10/15 03:26:01;;;;;;;2.50;1.87;;;13.70;99.90;;;;;;5108820;28;20254;-81
2021/10/15 03:28:28;;;;;;;1.77;1.67;;;13.70;99.90;;;;;;5105716;28;20224;-81
2021/10/15 03:30:55;;;;;;;1.87;1.77;;;13.70;99.90;;;;;;5107473;28;20207;-81
2021/10/15 03:33:22;;;;;;;1.70;1.60;;;13.80;99.90;;;;;;5110012;28;20309;-81
2021/10/15 03:35:51;;;;;;;1.30;1.20;;;13.70;99.90;;;;;;5108270;28;20229;-81
2021/10/15 03:38:18;;;;;;;1.77;1.67;;;13.70;99.90;;;;;;5108057;28;20207;-81
2021/10/15 03:40:45;;;;;;;1.90;1.50;;;13.70;99.90;;;;;;5109854;28;20191;-81
2021/10/15 03:43:12;;;;;;;2.20;1.50;;;13.70;99.90;;;;;;5104041;28;20206;-81
2021/10/15 03:45:39;;;;;;;1.70;1.43;;;13.70;99.90;;;;;;5104234;28;20576;-81
2021/10/15 03:48:06;;;;;;;1.83;1.67;;;13.70;99.90;;;;;;5109522;28;20665;-80
2021/10/15 03:50:33;;;;;;;1.60;1.50;;;13.70;99.90;;;;;;5109298;28;20204;-81
2021/10/15 03:53:01;;;;;;;1.40;1.30;;;13.70;99.90;;;;;;5107547;28;20197;-81
2021/10/15 03:55:28;;;;;;;1.40;1.30;;;13.70;99.90;;;;;;5112149;27;20234;-80
2021/10/15 03:57:55;;;;;;;2.90;1.60;;;13.70;99.90;;;;;;5108101;28;20199;-81
2021/10/15 04:00:22;;;;;;;1.30;1.20;;;13.70;99.90;;;;;;5107616;28;20189;-81
2021/10/15 04:02:49;;;;;;;2.00;1.80;;;13.70;99.90;;;;;;5112298;27;20208;-81
2021/10/15 04:05:16;;;;;;;1.90;1.80;;;13.70;99.90;;;;;;5108638;28;20237;-81
2021/10/15 04:07:44;;;;;;;1.80;1.70;;;13.70;99.90;;;;;;5110057;28;20192;-82
2021/10/15 04:10:13;;;;;;;1.40;1.40;;;13.70;99.90;;;;;;5108238;28;20744;-82
2021/10/15 04:12:40;;;;;;;2.17;1.70;;;13.70;99.90;;;;;;5107413;28;20279;-82
2021/10/15 04:15:08;;;;;;;3.43;2.00;;;13.70;99.90;;;;;;5107806;28;20217;-81
2021/10/15 04:17:35;;;;;;;3.27;1.93;;;13.60;99.90;;;;;;5107889;28;20804;-81
2021/10/15 04:20:03;;;;;;;2.30;2.10;;;13.60;99.90;;;;;;5106145;28;20209;-81
2021/10/15 04:22:30;;;;;;;2.30;2.10;;;13.60;99.90;;;;;;5104288;28;20231;-81
2021/10/15 04:24:57;;;;;;;1.87;1.70;;;13.50;99.90;;;;;;5108425;28;20338;-82
2021/10/15 04:27:26;;;;;;;2.33;2.03;;;13.60;99.90;;;;;;5094258;28;20200;-81
2021/10/15 04:29:54;;;;;;;3.37;1.70;;;13.50;99.90;;;;;;5107369;28;20205;-81
2021/10/15 04:32:21;;;;;;;2.27;2.07;;;13.50;99.90;;;;;;5107147;28;20226;-81
2021/10/15 04:34:48;;;;;;;1.93;1.77;;;13.50;99.90;;;;;;5107906;28;20217;-81
2021/10/15 04:37:14;;;;;;;2.77;2.20;;;13.50;99.90;;;;;;5107677;28;20672;-81
2021/10/15 04:39:42;;;;;;;2.27;1.80;;;13.50;99.90;;;;;;5110702;28;20196;-81
2021/10/15 04:42:09;;;;;;;2.13;1.93;;;13.50;99.90;;;;;;5106810;28;20201;-81
2021/10/15 04:44:37;;;;;;;2.13;1.80;;;13.50;99.90;;;;;;5102731;28;20651;-81
2021/10/15 04:47:04;;;;;;;2.27;2.03;;;13.50;99.90;;;;;;5108131;28;20540;-82
2021/10/15 04:49:31;;;;;;;2.30;2.10;;;13.50;99.90;;;;;;5107324;28;20196;-83
2021/10/15 04:51:59;;;;;;;2.33;2.10;;;13.50;99.90;;;;;;5107120;28;20838;-81
2021/10/15 04:54:26;;;;;;;2.67;2.27;;;13.50;99.90;;;;;;5106935;28;20208;-81
2021/10/15 04:56:54;;;;;;;3.03;2.70;;;13.50;99.90;;;;;;5107144;28;20228;-82
2021/10/15 04:59:21;;;;;;;2.43;2.23;;;13.50;99.90;;;;;;5110536;28;20200;-81
2021/10/15 05:01:49;;;;;;;1.97;1.87;;;13.40;99.90;;;;;;5108446;28;20192;-81
2021/10/15 05:04:16;;;;;;;2.20;1.90;;;13.40;99.90;;;;;;5106911;28;20243;-82
2021/10/15 05:06:43;;;;;;;2.00;1.80;;;13.40;99.90;;;;;;5107457;28;20288;-80
2021/10/15 05:09:32;;;;;;;2.33;2.23;;;13.40;99.90;;;;;;5107408;28;20254;-81
2021/10/15 05:12:02;;;;;;;2.97;2.57;;;13.40;99.90;;;;;;5106877;28;20246;-80
2021/10/15 05:14:29;;;;;;;2.63;2.30;;;13.40;99.90;;;;;;5106290;28;20668;-81
2021/10/15 05:16:57;;;;;;;2.50;2.30;;;13.40;99.90;;;;;;5107769;28;20699;-81
2021/10/15 05:19:24;;;;;;;3.00;2.20;;;13.40;99.90;;;;;;5115268;27;20247;-82
2021/10/15 05:21:51;;;;;;;1.73;1.63;;;13.40;99.90;;;;;;5093962;28;20632;-81
2021/10/15 05:24:19;;;;;;;3.27;2.20;;;13.40;99.90;;;;;;5106728;28;20209;-82
2021/10/15 05:26:46;;;;;;;3.03;2.00;;;13.40;99.90;;;;;;5095135;28;20265;-82
2021/10/15 05:29:12;;;;;;;2.10;1.97;;;13.40;99.90;;;;;;5105065;28;20739;-82
2021/10/15 05:31:39;;;;;;;3.00;2.40;;;13.40;99.90;;;;;;5111811;28;20203;-82
2021/10/15 05:34:08;;;;;;;5.50;3.07;;;13.40;99.90;;;;;;5110737;28;20237;-81
2021/10/15 05:36:35;;;;;;;2.77;2.40;;;13.30;99.90;;;;;;5111305;28;20235;-82
2021/10/15 05:39:03;;;;;;;2.63;2.40;;;13.30;99.90;;;;;;5110126;28;20204;-82
2021/10/15 05:41:29;;;;;;;4.07;3.10;;;13.30;99.90;;;;;;5112295;27;20610;-81
2021/10/15 05:43:57;;;;;;;3.27;2.73;;;13.30;99.90;;;;;;5109396;27;20204;-81
2021/10/15 05:46:24;;;;;;;2.73;2.50;;;13.30;99.90;;;;;;5113743;27;20204;-81
2021/10/15 05:48:51;;;;;;;2.87;2.57;;;13.30;99.90;;;;;;5112396;27;20208;-81
2021/10/15 05:51:19;;;;;;;3.73;2.67;;;13.30;99.90;;;;;;5110620;28;20545;-81
2021/10/15 05:53:47;;;;;;;3.83;2.30;;;13.30;99.90;;;;;;5109757;28;20721;-81
2021/10/15 05:59:06;;;;;;;3.03;2.70;;;13.30;99.90;;;;;;5109757;28;20939;-82
2021/10/15 06:01:35;;;;;;;2.97;2.77;;;13.40;99.90;;;;;;5113211;27;20208;-82
2021/10/15 06:15:10;;;;;;;2.90;2.70;;;13.50;99.90;;;;;;5048077;28;20201;-82
2021/10/15 06:17:46;;;;;;;5.63;3.10;;;13.50;99.90;;;;;;5051379;28;20601;-81
2021/10/15 06:20:13;;;;;;;3.10;2.90;;;13.50;99.90;;;;;;5063753;28;20205;-82
2021/10/15 06:22:41;;;;;;;2.80;2.60;;;13.60;99.90;;;;;;5049001;28;20998;-82
2021/10/15 06:25:09;;;;;;;4.40;3.17;;;13.50;99.90;;;;;;5064302;28;20739;-82
2021/10/15 06:27:36;;;;;;;4.13;3.17;;;13.60;99.90;;;;;;5047096;28;20197;-82
2021/10/15 06:30:05;;;;;;;2.87;2.60;;;13.60;99.90;;;;;;5065320;28;20286;-82
2021/10/15 06:32:32;;;;;;;2.63;2.40;;;13.60;99.90;;;;;;5047781;28;20221;-79
2021/10/15 06:35:00;;;;;;;2.93;2.73;;;13.60;99.90;;;;;;5065544;28;20297;-82
2021/10/15 06:37:27;;;;;;;2.70;2.50;;;13.70;99.90;;;;;;5064767;28;20297;-82
2021/10/15 06:39:55;;;;;;;2.53;2.37;;;13.70;99.90;;;;;;5054293;28;20226;-82
2021/10/15 06:42:22;;;;;;;2.30;2.10;;;13.70;99.90;;;;;;5064049;28;20198;-83
2021/10/15 06:44:49;;;;;;;4.27;3.00;;;13.80;99.90;;;;;;5097767;28;20205;-82
2021/10/15 06:47:16;;;;;;;3.33;2.80;;;13.80;99.90;;;;;;5105791;28;20212;-81
2021/10/15 06:49:43;;;;;;;3.93;3.27;;;13.80;99.90;;;;;;5106846;28;20231;-81
2021/10/15 06:52:10;;;;;;;3.33;3.03;;;13.90;99.90;;;;;;5108955;27;20672;-81
2021/10/15 06:54:37;;;;;;;2.47;2.37;;;13.90;99.90;;;;;;5106799;27;20199;-81
2021/10/15 06:57:06;;;;;;;3.00;2.80;;;13.90;99.90;;;;;;5111763;27;20213;-82
2021/10/15 06:59:34;;;;;;;3.77;3.30;;;14.00;99.90;;;;;;5105185;28;20201;-81
2021/10/15 07:02:04;;;;;;;4.83;2.73;;;14.00;99.90;;;;;;5105862;28;20228;-81
2021/10/15 07:04:31;;;;;;;2.83;2.50;;;14.00;99.90;;;;;;5106333;28;20233;-81
2021/10/15 07:07:00;;;;;;;4.80;3.53;;;13.90;99.90;;;;;;5106438;28;20211;-81
2021/10/15 07:12:18;;;;;;;4.27;3.73;;;14.10;99.90;;;;;;5107020;28;20243;-81
2021/10/15 07:14:48;;;;;;;3.70;3.40;;;14.00;99.90;;;;;;5110421;27;20892;-82
2021/10/15 07:17:15;;;;;;;5.00;4.10;;;14.10;99.90;;;;;;5106269;28;20315;-83
2021/10/15 07:19:42;;;;;;;5.10;4.03;;;14.10;99.90;;;;;;5098012;27;20197;-81
2021/10/15 07:22:09;;;;;;;4.97;4.47;;;14.10;99.90;;;;;;5102935;28;20996;-77
2021/10/15 07:24:36;;;;;;;6.47;4.88;;;14.10;99.90;;;;;;5099611;27;20741;-79
2021/10/15 07:27:11;;;;;;;6.13;5.40;;;14.20;99.90;;;;;;5103511;28;21011;-81
2021/10/15 07:29:40;;;;;;;4.82;4.35;;;14.50;99.90;;;;;;5103228;28;20524;-82
2021/10/15 07:32:07;;;;;;;4.63;4.07;;;14.40;99.90;;;;;;5107337;27;20636;-82
2021/10/15 07:34:34;;;;;;;7.53;5.70;;;14.50;99.90;;;;;;5105049;28;20289;-82
2021/10/15 07:37:01;;;;;;;5.60;4.60;;;14.50;99.90;;;;;;5106740;27;20634;-82
2021/10/15 07:39:28;;;;;;;5.77;4.90;;;14.60;99.90;;;;;;5107314;27;20928;-82
2021/10/15 07:41:55;;;;;;;8.00;5.63;;;14.50;99.90;;;;;;5106941;27;20251;-81
2021/10/15 07:44:22;;;;;;;8.70;6.40;;;14.60;99.90;;;;;;5104154;28;20206;-82
2021/10/15 07:46:52;;;;;;;10.63;6.43;;;14.50;99.90;;;;;;5109226;27;20193;-82
2021/10/15 07:49:19;;;;;;;10.10;7.07;;;14.50;99.90;;;;;;5107837;27;20698;-82
2021/10/15 07:51:46;;;;;;;9.47;6.40;;;14.50;99.90;;;;;;5111833;27;20281;-81
2021/10/15 07:54:14;;;;;;;7.70;5.63;;;14.50;99.90;;;;;;5108053;27;20206;-81
2021/10/15 07:56:41;;;;;;;8.77;6.70;;;14.50;99.90;;;;;;5111915;27;20712;-81
2021/10/15 07:59:08;;;;;;;11.27;7.10;;;14.50;99.90;;;;;;5103151;27;20202;-81
2021/10/15 08:01:43;;;;;;;7.73;5.87;;;14.50;99.90;;;;;;5110829;27;20653;-82
2021/10/15 08:04:13;;;;;;;6.87;5.53;;;14.60;99.90;;;;;;5103752;28;20324;-83
2021/10/15 08:06:40;;;;;;;6.67;5.63;;;14.60;99.90;;;;;;5105626;27;20305;-82
2021/10/15 08:09:08;;;;;;;11.50;6.77;;;14.60;99.90;;;;;;5105867;28;20207;-82
2021/10/15 08:11:35;;;;;;;6.87;6.10;;;14.60;99.90;;;;;;5105348;28;20221;-82
2021/10/15 08:14:02;;;;;;;6.43;5.53;;;14.70;99.90;;;;;;5103841;27;20214;-82
2021/10/15 08:16:32;;;;;;;8.63;5.90;;;14.70;99.90;;;;;;5100308;28;20310;-83
2021/10/15 08:18:59;;;;;;;9.60;7.00;;;14.70;99.90;;;;;;5106898;27;20230;-83
2021/10/15 08:21:27;;;;;;;9.70;7.37;;;14.80;99.90;;;;;;5107636;27;20219;-83
2021/10/15 08:23:54;;;;;;;10.63;6.93;;;14.80;99.90;;;;;;5100691;27;20281;-82
2021/10/15 08:26:21;;;;;;;8.67;7.10;;;14.80;99.90;;;;;;5106121;27;20214;-83
2021/10/15 08:28:58;;;;;;;13.23;8.40;;;14.80;99.90;;;;;;5100510;28;20270;-82
2021/10/15 08:31:28;;;;;;;8.73;6.97;;;14.90;99.90;;;;;;5102459;28;20201;-79
2021/10/15 08:33:55;;;;;;;8.07;6.30;;;14.80;99.90;;;;;;5106324;27;20192;-79
2021/10/15 08:36:23;;;;;;;11.77;7.33;;;14.90;99.90;;;;;;5104135;28;20215;-82
2021/10/15 08:38:52;;;;;;;8.53;7.27;;;14.90;99.90;;;;;;5105178;28;20236;-78
2021/10/15 08:41:21;;;;;;;9.13;6.20;;;14.90;99.90;;;;;;5105695;28;20215;-83
2021/10/15 08:43:48;;;;;;;9.37;7.50;;;14.90;99.90;;;;;;5100547;28;20195;-83
2021/10/15 08:46:16;;;;;;;7.83;7.03;;;15.00;99.90;;;;;;5106853;28;20224;-82
2021/10/15 08:48:44;;;;;;;10.20;6.80;;;15.00;99.90;;;;;;5101576;28;20999;-79
2021/10/15 08:51:11;;;;;;;9.33;7.30;;;15.00;99.90;;;;;;5109148;28;20221;-80
2021/10/15 08:53:49;;;;;;;8.27;6.73;;;15.00;99.90;;;;;;5108612;28;20196;-79
2021/10/15 08:56:18;;;;;;;9.13;7.27;;;15.00;99.90;;;;;;5107324;28;20230;-80
2021/10/15 08:58:47;;;;;;;11.37;7.67;;;15.10;99.90;;;;;;5102292;28;20202;-82
2021/10/15 09:01:14;;;;;;;8.17;6.57;;;15.10;99.90;;;;;;5105814;28;20357;-83
2021/10/15 09:03:43;;;;;;;7.70;6.83;;;15.10;99.90;;;;;;5106940;27;20262;-83
2021/10/15 09:06:12;;;;;;;8.27;6.57;;;15.10;99.90;;;;;;5113644;27;20194;-81
2021/10/15 09:08:48;;;;;;;8.80;6.87;;;15.20;99.90;;;;;;5108539;28;20194;-81
2021/10/15 09:11:28;;;;;;;8.03;6.70;;;15.20;99.90;;;;;;5114836;27;20505;-81
2021/10/15 09:14:05;;;;;;;8.00;6.30;;;15.20;99.90;;;;;;5103790;28;20701;-81
2021/10/15 09:16:52;;;;;;;6.53;5.30;;;15.30;99.90;;;;;;5107542;28;20222;-81
2021/10/15 09:19:25;;;;;;;8.13;6.23;;;15.40;99.90;;;;;;5110040;28;20207;-81
2021/10/15 09:22:15;;;;;;;6.67;5.60;;;15.70;99.90;;;;;;5106352;27;20335;-81
2021/10/15 09:24:45;;;;;;;9.83;7.40;;;15.60;99.90;;;;;;5102238;28;20214;-81
2021/10/15 09:27:16;;;;;;;8.97;5.77;;;15.60;99.90;;;;;;5105609;27;20226;-82
2021/10/15 09:29:48;;;;;;;6.30;5.53;;;15.60;99.90;;;;;;5106332;27;20199;-82
2021/10/15 09:32:16;;;;;;;7.73;5.73;;;15.60;99.90;;;;;;5107926;27;20200;-80
2021/10/15 09:34:44;;;;;;;8.13;5.87;;;15.70;99.90;;;;;;5106937;27;20198;-81
2021/10/15 09:37:13;;;;;;;6.93;5.73;;;15.80;99.90;;;;;;5105391;27;20222;-81
2021/10/15 09:39:40;;;;;;;6.00;5.00;;;15.80;99.90;;;;;;5110325;27;20252;-83
2021/10/15 09:42:19;;;;;;;4.33;4.03;;;15.80;99.90;;;;;;5106969;28;20199;-80
2021/10/15 09:44:46;;;;;;;4.50;4.10;;;15.90;99.90;;;;;;5106694;27;20222;-82
2021/10/15 09:47:15;;;;;;;7.03;4.30;;;16.10;99.90;;;;;;5110951;27;20257;-79
2021/10/15 09:49:56;;;;;;;5.27;3.77;;;16.10;99.90;;;;;;5109902;27;20204;-84
2021/10/15 09:52:25;;;;;;;7.30;5.87;;;16.20;99.90;;;;;;5107441;28;20200;-81
2021/10/15 09:54:57;;;;;;;8.40;6.10;;;16.10;99.90;;;;;;5111057;27;20199;-82
2021/10/15 09:57:34;;;;;;;8.50;5.77;;;16.20;99.90;;;;;;5108951;27;20226;-83
2021/10/15 10:00:02;;;;;;;6.43;5.00;;;16.20;99.90;;;;;;5106546;27;20275;-81
2021/10/15 10:02:32;;;;;;;6.23;4.20;;;16.20;99.90;;;;;;5108521;27;20204;-85
2021/10/15 10:04:59;;;;;;;5.13;4.13;;;16.30;99.90;;;;;;5116470;27;20238;-86
2021/10/15 10:07:26;;;;;;;4.97;4.33;;;16.40;99.90;;;;;;5103035;28;20196;-78
2021/10/15 10:09:54;;;;;;;7.43;4.40;;;16.50;99.90;;;;;;5111734;27;20587;-82
2021/10/15 10:12:21;;;;;;;4.20;3.80;;;16.60;99.90;;;;;;5121229;27;20203;-82
2021/10/15 10:14:49;;;;;;;5.00;4.10;;;16.70;99.90;;;;;;5106141;27;20593;-84
2021/10/15 10:17:23;;;;;;;5.03;3.90;;;16.90;99.90;;;;;;5111290;27;20208;-81
2021/10/15 10:19:55;;;;;;;4.33;3.90;;;17.10;99.90;;;;;;5102713;27;20193;-82
2021/10/15 10:22:24;;;;;;;3.73;3.43;;;17.30;99.90;;;;;;5105689;28;20231;-82
2021/10/15 10:24:55;;;;;;;7.13;4.47;;;17.60;99.90;;;;;;5110861;27;20659;-79
2021/10/15 10:27:30;;;;;;;5.97;4.67;;;17.90;99.90;;;;;;5104051;27;20309;-80
2021/10/15 10:29:59;;;;;;;4.23;3.83;;;18.10;99.90;;;;;;5107656;27;20192;-82
2021/10/15 10:32:28;;;;;;;3.90;3.47;;;18.40;99.90;;;;;;5105204;27;20214;-83
2021/10/15 10:34:55;;;;;;;8.57;4.03;;;18.60;99.90;;;;;;5106390;28;20863;-83
2021/10/15 10:37:23;;;;;;;4.67;3.67;;;18.90;99.30;;;;;;5109133;27;20297;-81
2021/10/15 10:40:07;;;;;;;3.15;2.85;;;19.00;98.60;;;;;;5108179;27;20431;-80
2021/10/15 10:42:34;;;;;;;3.03;2.80;;;18.90;98.70;;;;;;5104975;28;20207;-80
2021/10/15 10:45:13;;;;;;;4.03;3.53;;;19.00;98.70;;;;;;5108247;27;20202;-81
2021/10/15 10:47:40;;;;;;;4.18;3.63;;;19.00;98.50;;;;;;5107581;27;20282;-82
2021/10/15 10:50:12;;;;;;;4.18;3.75;;;19.00;98.50;;;;;;5108006;28;20188;-82
2021/10/15 10:53:04;;;;;;;5.88;3.75;;;19.00;97.80;;;;;;5105930;28;20207;-81
2021/10/15 10:55:36;;;;;;;3.88;3.50;;;18.90;97.60;;;;;;5074762;28;20221;-76
2021/10/15 10:58:03;;;;;;;6.38;4.32;;;18.90;97.50;;;;;;5079024;28;20338;-75
2021/10/15 11:00:31;;;;;;;3.65;3.35;;;18.90;96.90;;;;;;5077343;28;20205;-76
2021/10/15 11:03:00;;;;;;;3.75;3.40;;;18.70;96.70;;;;;;5078773;28;20196;-87
2021/10/15 11:05:36;;;;;;;3.55;3.25;;;18.60;96.70;;;;;;5055245;28;20956;-82
2021/10/15 11:08:31;;;;;;;3.00;2.70;;;18.40;96.80;;;;;;5074480;28;20207;-84
2021/10/15 11:11:43;;;;;;;3.17;2.88;;;18.20;96.60;;;;;;5079618;28;20211;-81
2021/10/15 11:14:25;;;;;;;3.35;3.08;;;18.00;96.80;;;;;;5079085;28;20433;-81
2021/10/15 11:17:09;;;;;;;3.47;2.63;;;17.80;96.90;;;;;;5059869;28;20766;-84
2021/10/15 11:19:36;;;;;;;2.63;2.50;;;17.70;97.20;;;;;;5080113;28;20208;-82
2021/10/15 11:22:03;;;;;;;2.43;2.23;;;17.60;97.40;;;;;;5060643;28;20207;-83
2021/10/15 11:24:30;;;;;;;2.55;2.42;;;17.50;97.40;;;;;;5054294;28;20437;-82
2021/10/15 11:26:58;;;;;;;2.43;2.27;;;17.50;97.70;;;;;;5075394;28;20201;-82
2021/10/15 11:29:25;;;;;;;3.07;2.77;;;17.40;97.80;;;;;;5061650;28;20774;-80
2021/10/15 11:31:59;;;;;;;2.30;2.10;;;17.30;97.60;;;;;;5079640;28;20201;-80
2021/10/15 11:34:26;;;;;;;2.20;1.97;;;17.30;97.70;;;;;;5106580;27;20229;-80
2021/10/15 11:37:03;;;;;;;2.53;1.90;;;17.20;97.80;;;;;;5106082;27;20200;-82
2021/10/15 11:39:30;;;;;;;2.63;2.40;;;17.20;97.90;;;;;;5122735;27;20285;-80
2021/10/15 11:41:57;;;;;;;2.63;2.43;;;17.10;97.80;;;;;;5105080;28;20185;-79
2021/10/15 11:44:42;;;;;;;2.87;2.50;;;17.00;97.90;;;;;;5103564;28;20211;-79
2021/10/15 11:47:12;;;;;;;2.63;2.43;;;16.90;98.00;;;;;;5106467;27;20195;-78
2021/10/15 11:49:39;;;;;;;4.80;2.40;;;16.90;98.10;;;;;;5104223;28;20292;-79
2021/10/15 11:52:06;;;;;;;2.53;2.33;;;16.80;98.20;;;;;;5103843;28;20192;-79
2021/10/15 11:54:33;;;;;;;2.53;2.33;;;16.80;98.20;;;;;;5107171;27;20283;-79
2021/10/15 11:57:01;;;;;;;2.20;2.10;;;16.80;98.30;;;;;;5111569;27;20290;-79
2021/10/15 11:59:28;;;;;;;2.57;2.40;;;16.70;98.80;;;;;;5100290;28;20205;-77
2021/10/15 12:02:02;;;;;;;4.40;2.80;;;16.70;98.60;;;;;;5103766;27;20192;-79
2021/10/15 12:04:31;;;;;;;3.37;2.60;;;16.60;98.60;;;;;;5110964;27;20305;-79
2021/10/15 12:07:00;;;;;;;2.40;2.20;;;16.60;98.60;;;;;;5107239;27;20467;-78
2021/10/15 12:09:27;;;;;;;3.53;2.45;;;16.60;98.70;;;;;;5120955;27;20533;-80
2021/10/15 12:11:57;;;;;;;4.67;2.50;;;16.50;99.10;;;;;;5109933;27;20192;-77
2021/10/15 12:14:27;;;;;;;2.70;2.50;;;16.50;99.10;;;;;;5105725;27;20557;-78
2021/10/15 12:16:57;;;;;;;3.20;2.17;;;16.50;99.20;;;;;;5109705;27;20211;-79
2021/10/15 12:19:27;;;;;;;3.13;2.40;;;16.50;99.20;;;;;;5105052;28;20197;-78
2021/10/15 12:22:04;;;;;;;2.80;2.50;;;16.60;99.20;;;;;;5109741;27;20237;-79
2021/10/15 12:24:33;;;;;;;2.57;2.37;;;16.50;99.10;;;;;;5104997;28;20579;-78
2021/10/15 12:27:02;;;;;;;2.50;2.30;;;16.50;99.10;;;;;;5105291;28;20195;-79
2021/10/15 12:29:31;;;;;;;2.42;2.22;;;16.60;99.20;;;;;;5100244;28;20934;-76
2021/10/15 12:32:29;;;;;;;2.40;2.20;;;16.50;99.70;;;;;;5105637;28;20188;-77
2021/10/15 12:35:08;;;;;;;2.03;1.83;;;16.50;99.40;;;;;;5102764;28;20222;-79
2021/10/15 12:37:40;;;;;;;2.13;2.03;;;16.60;99.30;;;;;;5101646;28;20298;-76
2021/10/15 12:40:17;;;;;;;2.90;2.43;;;16.60;99.40;;;;;;5105394;28;20628;-75
2021/10/15 12:42:46;;;;;;;3.10;2.40;;;16.50;99.30;;;;;;5099853;28;20312;-76
2021/10/15 12:45:15;;;;;;;3.07;2.00;;;16.50;99.30;;;;;;5105593;28;20218;-76
2021/10/15 12:47:53;;;;;;;2.40;1.90;;;16.40;99.30;;;;;;5102554;28;20290;-78
2021/10/15 12:50:20;;;;;;;4.10;2.40;;;16.40;99.40;;;;;;5102823;28;20279;-76
2021/10/15 12:52:49;;;;;;;3.57;2.00;;;16.40;99.50;;;;;;5108477;28;20203;-77
2021/10/15 12:55:17;;;;;;;2.70;1.90;;;16.40;99.60;;;;;;5103955;28;20286;-77
2021/10/15 12:57:46;;;;;;;1.70;1.60;;;16.30;99.70;;;;;;5103580;27;20211;-77
2021/10/15 13:00:14;;;;;;;2.10;1.90;;;16.30;99.80;;;;;;5099046;28;20218;-77
2021/10/15 13:02:42;;;;;;;2.20;2.00;;;16.30;99.80;;;;;;5103753;28;20215;-77
2021/10/15 13:05:12;;;;;;;2.50;2.27;;;16.30;99.90;;;;;;5108834;27;20249;-77
2021/10/15 13:07:40;;;;;;;2.73;2.27;;;16.20;99.90;;;;;;5106382;28;20211;-76
2021/10/15 13:10:17;;;;;;;2.50;2.30;;;16.20;99.90;;;;;;5106443;28;20195;-76
2021/10/15 13:12:45;;;;;;;3.17;2.87;;;16.20;99.90;;;;;;5102684;28;20206;-77
2021/10/15 13:15:12;;;;;;;3.00;2.22;;;16.20;99.90;;;;;;5101706;28;20445;-78